sensor_id;sensor_type;location;lat;lon;timestamp;pressure;altitude;pressure_sealevel;temperature;humidity
41234;BME280;26968;42.686;23.352;2022-11-20T00:00:39;94539.16;;;13.77;74.96
41234;BME280;26968;42.686;23.352;2022-11-20T00:03:05;94459.53;;;13.36;75.26
41234;BME280;26968;42.686;23.352;2022-11-20T00:05:32;94475.25;;;13.46;74.99
41234;BME280;26968;42.686;23.352;2022-11-20T00:07:58;94515.44;;;13.67;74.30
41234;BME280;26968;42.686;23.352;2022-11-20T00:10:23;94526.78;;;13.81;74.22
41234;BME280;26968;42.686;23.352;2022-11-20T00:12:49;94509.22;;;13.72;74.44
41234;BME280;26968;42.686;23.352;2022-11-20T00:15:14;94540.63;;;13.92;73.78
41234;BME280;26968;42.686;23.352;2022-11-20T00:17:40;94469.34;;;13.58;72.89
41234;BME280;26968;42.686;23.352;2022-11-20T00:20:06;94551.34;;;14.09;72.64
41234;BME280;26968;42.686;23.352;2022-11-20T00:22:31;94509.72;;;13.91;73.10
41234;BME280;26968;42.686;23.352;2022-11-20T00:24:57;94523.25;;;14.03;72.94
41234;BME280;26968;42.686;23.352;2022-11-20T00:27:23;94502.41;;;14.14;70.04
41234;BME280;26968;42.686;23.352;2022-11-20T00:29:48;94504.03;;;14.58;65.71
41234;BME280;26968;42.686;23.352;2022-11-20T00:32:13;94522.56;;;14.54;67.18
41234;BME280;26968;42.686;23.352;2022-11-20T00:34:39;94526.03;;;14.63;69.67
41234;BME280;26968;42.686;23.352;2022-11-20T00:37:04;94520.50;;;14.60;70.28
41234;BME280;26968;42.686;23.352;2022-11-20T00:39:29;94485.47;;;14.36;69.32
41234;BME280;26968;42.686;23.352;2022-11-20T00:41:55;94514.25;;;14.56;71.10
41234;BME280;26968;42.686;23.352;2022-11-20T00:44:20;94487.09;;;14.45;70.26
41234;BME280;26968;42.686;23.352;2022-11-20T00:46:46;94496.91;;;14.27;69.72
41234;BME280;26968;42.686;23.352;2022-11-20T00:49:11;94485.94;;;14.29;69.33
41234;BME280;26968;42.686;23.352;2022-11-20T00:51:36;94517.84;;;14.60;68.23
41234;BME280;26968;42.686;23.352;2022-11-20T00:54:02;94473.25;;;14.26;69.00
41234;BME280;26968;42.686;23.352;2022-11-20T00:56:27;94542.50;;;14.57;68.80
41234;BME280;26968;42.686;23.352;2022-11-20T00:58:53;94537.13;;;14.65;68.53
41234;BME280;26968;42.686;23.352;2022-11-20T01:01:21;94505.28;;;14.69;68.09
41234;BME280;26968;42.686;23.352;2022-11-20T01:03:50;94501.03;;;14.68;66.57
41234;BME280;26968;42.686;23.352;2022-11-20T01:06:24;94493.66;;;14.74;67.35
41234;BME280;26968;42.686;23.352;2022-11-20T01:08:50;94474.22;;;14.47;66.49
41234;BME280;26968;42.686;23.352;2022-11-20T01:11:29;94533.38;;;14.84;66.55
41234;BME280;26968;42.686;23.352;2022-11-20T01:13:56;94492.25;;;14.85;65.87
41234;BME280;26968;42.686;23.352;2022-11-20T01:16:43;94440.63;;;14.46;65.66
41234;BME280;26968;42.686;23.352;2022-11-20T01:19:12;94502.44;;;15.00;64.32
41234;BME280;26968;42.686;23.352;2022-11-20T01:21:40;94493.81;;;14.94;64.11
41234;BME280;26968;42.686;23.352;2022-11-20T01:24:14;94481.03;;;15.17;62.62
41234;BME280;26968;42.686;23.352;2022-11-20T01:26:41;94473.03;;;15.17;61.07
41234;BME280;26968;42.686;23.352;2022-11-20T01:29:15;94430.13;;;15.14;61.65
41234;BME280;26968;42.686;23.352;2022-11-20T01:31:41;94402.88;;;14.91;60.85
41234;BME280;26968;42.686;23.352;2022-11-20T01:34:09;94418.94;;;15.20;59.26
41234;BME280;26968;42.686;23.352;2022-11-20T01:36:36;94423.50;;;15.58;59.16
41234;BME280;26968;42.686;23.352;2022-11-20T01:39:09;94471.22;;;15.76;60.16
41234;BME280;26968;42.686;23.352;2022-11-20T01:42:00;94455.19;;;15.76;58.73
41234;BME280;26968;42.686;23.352;2022-11-20T01:44:57;94404.81;;;15.49;60.44
41234;BME280;26968;42.686;23.352;2022-11-20T01:50:17;94474.44;;;15.91;60.70
41234;BME280;26968;42.686;23.352;2022-11-20T01:52:55;94410.94;;;15.50;61.50
41234;BME280;26968;42.686;23.352;2022-11-20T01:55:25;94443.66;;;15.55;61.75
41234;BME280;26968;42.686;23.352;2022-11-20T01:57:52;94468.38;;;15.81;58.87
41234;BME280;26968;42.686;23.352;2022-11-20T02:00:19;94464.75;;;15.86;59.01
41234;BME280;26968;42.686;23.352;2022-11-20T02:02:57;94431.69;;;15.61;59.41
41234;BME280;26968;42.686;23.352;2022-11-20T02:05:39;94401.50;;;15.52;59.06
41234;BME280;26968;42.686;23.352;2022-11-20T02:08:08;94472.88;;;15.90;59.46
41234;BME280;26968;42.686;23.352;2022-11-20T02:10:33;94452.75;;;15.92;59.09
41234;BME280;26968;42.686;23.352;2022-11-20T02:12:59;94426.63;;;15.68;59.27
41234;BME280;26968;42.686;23.352;2022-11-20T02:15:43;94473.94;;;15.97;59.38
41234;BME280;26968;42.686;23.352;2022-11-20T02:18:11;94420.34;;;15.64;58.45
41234;BME280;26968;42.686;23.352;2022-11-20T02:20:40;94392.16;;;15.37;58.30
41234;BME280;26968;42.686;23.352;2022-11-20T02:23:28;94482.81;;;16.10;57.57
41234;BME280;26968;42.686;23.352;2022-11-20T02:25:55;94470.75;;;16.04;58.83
41234;BME280;26968;42.686;23.352;2022-11-20T02:28:22;94431.41;;;15.83;57.44
41234;BME280;26968;42.686;23.352;2022-11-20T02:30:48;94431.16;;;15.97;57.31
41234;BME280;26968;42.686;23.352;2022-11-20T02:33:13;94480.88;;;16.19;57.94
41234;BME280;26968;42.686;23.352;2022-11-20T02:35:41;94427.38;;;15.98;56.84
41234;BME280;26968;42.686;23.352;2022-11-20T02:38:07;94443.22;;;16.03;57.12
41234;BME280;26968;42.686;23.352;2022-11-20T02:40:33;94464.50;;;16.20;56.99
41234;BME280;26968;42.686;23.352;2022-11-20T02:42:58;94458.63;;;16.06;58.21
41234;BME280;26968;42.686;23.352;2022-11-20T02:45:24;94480.50;;;16.29;57.96
41234;BME280;26968;42.686;23.352;2022-11-20T02:47:50;94497.03;;;16.31;57.73
41234;BME280;26968;42.686;23.352;2022-11-20T02:50:16;94482.19;;;16.13;57.86
41234;BME280;26968;42.686;23.352;2022-11-20T02:52:42;94510.06;;;16.53;56.23
41234;BME280;26968;42.686;23.352;2022-11-20T02:55:08;94496.03;;;16.56;56.42
41234;BME280;26968;42.686;23.352;2022-11-20T02:57:33;94483.38;;;16.45;56.26
41234;BME280;26968;42.686;23.352;2022-11-20T02:59:59;94491.31;;;16.62;56.08
41234;BME280;26968;42.686;23.352;2022-11-20T03:02:24;94517.81;;;16.76;56.58
41234;BME280;26968;42.686;23.352;2022-11-20T03:04:50;94498.91;;;16.51;56.82
41234;BME280;26968;42.686;23.352;2022-11-20T03:07:15;94492.50;;;16.44;56.45
41234;BME280;26968;42.686;23.352;2022-11-20T03:09:40;94478.94;;;16.49;56.27
41234;BME280;26968;42.686;23.352;2022-11-20T03:12:06;94474.03;;;16.51;56.49
41234;BME280;26968;42.686;23.352;2022-11-20T03:14:31;94527.59;;;16.92;56.04
41234;BME280;26968;42.686;23.352;2022-11-20T03:16:57;94506.53;;;16.70;56.47
41234;BME280;26968;42.686;23.352;2022-11-20T03:19:23;94484.97;;;16.67;56.05
41234;BME280;26968;42.686;23.352;2022-11-20T03:21:49;94447.66;;;16.41;55.91
41234;BME280;26968;42.686;23.352;2022-11-20T03:24:14;94537.09;;;17.02;55.76
41234;BME280;26968;42.686;23.352;2022-11-20T03:26:40;94524.06;;;16.80;55.88
41234;BME280;26968;42.686;23.352;2022-11-20T03:29:06;94528.16;;;16.98;55.36
41234;BME280;26968;42.686;23.352;2022-11-20T03:31:37;94476.47;;;16.65;56.09
41234;BME280;26968;42.686;23.352;2022-11-20T03:34:06;94527.84;;;16.79;57.02
41234;BME280;26968;42.686;23.352;2022-11-20T03:36:32;94504.06;;;16.56;56.14
41234;BME280;26968;42.686;23.352;2022-11-20T03:38:59;94548.31;;;16.83;56.31
41234;BME280;26968;42.686;23.352;2022-11-20T03:41:30;94554.69;;;16.91;55.92
41234;BME280;26968;42.686;23.352;2022-11-20T03:44:00;94488.78;;;16.57;56.11
41234;BME280;26968;42.686;23.352;2022-11-20T03:46:26;94555.47;;;16.91;55.63
41234;BME280;26968;42.686;23.352;2022-11-20T03:48:52;94562.91;;;17.07;55.83
41234;BME280;26968;42.686;23.352;2022-11-20T03:51:29;94560.41;;;17.02;55.79
41234;BME280;26968;42.686;23.352;2022-11-20T03:53:57;94548.28;;;17.04;56.39
41234;BME280;26968;42.686;23.352;2022-11-20T03:56:25;94534.94;;;16.95;56.09
41234;BME280;26968;42.686;23.352;2022-11-20T03:58:51;94511.53;;;16.72;56.39
41234;BME280;26968;42.686;23.352;2022-11-20T04:01:19;94548.81;;;16.97;55.93
41234;BME280;26968;42.686;23.352;2022-11-20T04:03:45;94552.72;;;17.00;56.15
41234;BME280;26968;42.686;23.352;2022-11-20T04:06:25;94553.16;;;17.02;55.52
41234;BME280;26968;42.686;23.352;2022-11-20T04:08:53;94561.34;;;17.06;55.28
41234;BME280;26968;42.686;23.352;2022-11-20T04:11:24;94565.28;;;17.08;55.27
41234;BME280;26968;42.686;23.352;2022-11-20T04:13:52;94506.53;;;16.70;55.59
41234;BME280;26968;42.686;23.352;2022-11-20T04:16:19;94539.28;;;16.88;55.04
41234;BME280;26968;42.686;23.352;2022-11-20T04:18:45;94546.59;;;17.00;54.80
41234;BME280;26968;42.686;23.352;2022-11-20T04:21:10;94502.06;;;16.74;55.21
41234;BME280;26968;42.686;23.352;2022-11-20T04:23:36;94513.50;;;16.83;54.69
41234;BME280;26968;42.686;23.352;2022-11-20T04:26:04;94505.56;;;16.87;54.54
41234;BME280;26968;42.686;23.352;2022-11-20T04:28:30;94534.16;;;16.95;55.50
41234;BME280;26968;42.686;23.352;2022-11-20T04:31:05;94478.53;;;16.59;55.37
41234;BME280;26968;42.686;23.352;2022-11-20T04:33:30;94527.94;;;16.70;55.89
41234;BME280;26968;42.686;23.352;2022-11-20T04:36:07;94559.28;;;16.90;55.63
41234;BME280;26968;42.686;23.352;2022-11-20T04:38:33;94572.88;;;16.85;55.90
41234;BME280;26968;42.686;23.352;2022-11-20T04:41:04;94578.47;;;16.92;55.75
41234;BME280;26968;42.686;23.352;2022-11-20T04:43:30;94569.25;;;16.81;56.17
41234;BME280;26968;42.686;23.352;2022-11-20T04:45:57;94576.34;;;16.86;56.34
41234;BME280;26968;42.686;23.352;2022-11-20T04:48:24;94531.25;;;16.67;56.42
41234;BME280;26968;42.686;23.352;2022-11-20T04:50:51;94556.13;;;16.88;56.65
41234;BME280;26968;42.686;23.352;2022-11-20T04:53:17;94566.38;;;16.86;56.99
41234;BME280;26968;42.686;23.352;2022-11-20T04:55:42;94551.44;;;16.85;56.60
41234;BME280;26968;42.686;23.352;2022-11-20T04:58:08;94488.41;;;16.46;57.03
41234;BME280;26968;42.686;23.352;2022-11-20T05:00:34;94551.16;;;16.78;57.52
41234;BME280;26968;42.686;23.352;2022-11-20T05:02:59;94471.69;;;16.29;57.55
41234;BME280;26968;42.686;23.352;2022-11-20T05:05:25;94525.63;;;16.60;57.66
41234;BME280;26968;42.686;23.352;2022-11-20T05:07:50;94445.56;;;16.05;57.85
41234;BME280;26968;42.686;23.352;2022-11-20T05:10:16;94476.91;;;16.25;57.18
41234;BME280;26968;42.686;23.352;2022-11-20T05:12:41;94493.41;;;16.27;57.85
41234;BME280;26968;42.686;23.352;2022-11-20T05:15:07;94440.59;;;15.95;58.12
41234;BME280;26968;42.686;23.352;2022-11-20T05:17:32;94516.28;;;16.45;57.86
41234;BME280;26968;42.686;23.352;2022-11-20T05:19:57;94501.19;;;16.41;58.48
41234;BME280;26968;42.686;23.352;2022-11-20T05:22:23;94479.78;;;16.20;58.56
41234;BME280;26968;42.686;23.352;2022-11-20T05:24:48;94473.63;;;16.19;58.43
41234;BME280;26968;42.686;23.352;2022-11-20T05:27:14;94460.47;;;16.14;58.75
41234;BME280;26968;42.686;23.352;2022-11-20T05:29:39;94458.34;;;15.99;59.45
41234;BME280;26968;42.686;23.352;2022-11-20T05:32:05;94430.25;;;15.64;60.89
41234;BME280;26968;42.686;23.352;2022-11-20T05:34:32;94496.44;;;15.96;61.96
41234;BME280;26968;42.686;23.352;2022-11-20T05:36:58;94477.34;;;15.77;62.54
41234;BME280;26968;42.686;23.352;2022-11-20T05:39:23;94534.09;;;16.12;63.00
41234;BME280;26968;42.686;23.352;2022-11-20T05:41:48;94507.16;;;15.88;63.26
41234;BME280;26968;42.686;23.352;2022-11-20T05:44:34;94492.16;;;15.74;64.05
41234;BME280;26968;42.686;23.352;2022-11-20T05:46:59;94492.34;;;15.69;64.88
41234;BME280;26968;42.686;23.352;2022-11-20T05:49:24;94538.31;;;15.92;65.21
41234;BME280;26968;42.686;23.352;2022-11-20T05:51:50;94472.41;;;15.50;65.48
41234;BME280;26968;42.686;23.352;2022-11-20T05:54:15;94462.41;;;15.38;65.21
41234;BME280;26968;42.686;23.352;2022-11-20T05:56:41;94478.84;;;15.57;65.17
41234;BME280;26968;42.686;23.352;2022-11-20T05:59:07;94532.84;;;15.80;65.48
41234;BME280;26968;42.686;23.352;2022-11-20T06:01:32;94533.63;;;15.80;65.43
41234;BME280;26968;42.686;23.352;2022-11-20T06:03:57;94496.47;;;15.58;65.29
41234;BME280;26968;42.686;23.352;2022-11-20T06:06:23;94536.94;;;15.86;65.03
41234;BME280;26968;42.686;23.352;2022-11-20T06:08:49;94456.47;;;15.32;64.56
41234;BME280;26968;42.686;23.352;2022-11-20T06:11:15;94527.97;;;15.82;64.73
41234;BME280;26968;42.686;23.352;2022-11-20T06:13:41;94527.34;;;15.85;64.75
41234;BME280;26968;42.686;23.352;2022-11-20T06:16:07;94495.34;;;15.51;64.45
41234;BME280;26968;42.686;23.352;2022-11-20T06:18:32;94520.16;;;15.68;64.50
41234;BME280;26968;42.686;23.352;2022-11-20T06:21:02;94525.94;;;15.79;64.72
41234;BME280;26968;42.686;23.352;2022-11-20T06:23:30;94521.72;;;15.78;64.47
41234;BME280;26968;42.686;23.352;2022-11-20T06:25:56;94534.69;;;15.88;63.98
41234;BME280;26968;42.686;23.352;2022-11-20T06:28:21;94548.69;;;15.94;64.24
41234;BME280;26968;42.686;23.352;2022-11-20T06:30:47;94526.72;;;15.79;63.89
41234;BME280;26968;42.686;23.352;2022-11-20T06:33:12;94554.81;;;15.94;64.42
41234;BME280;26968;42.686;23.352;2022-11-20T06:35:37;94545.34;;;15.97;63.85
41234;BME280;26968;42.686;23.352;2022-11-20T06:38:03;94479.00;;;15.61;63.61
41234;BME280;26968;42.686;23.352;2022-11-20T06:40:28;94537.94;;;16.02;63.81
41234;BME280;26968;42.686;23.352;2022-11-20T06:42:54;94495.28;;;15.76;63.49
41234;BME280;26968;42.686;23.352;2022-11-20T06:45:20;94535.59;;;16.01;63.71
41234;BME280;26968;42.686;23.352;2022-11-20T06:47:46;94545.78;;;16.07;63.88
41234;BME280;26968;42.686;23.352;2022-11-20T06:50:11;94481.97;;;15.68;63.57
41234;BME280;26968;42.686;23.352;2022-11-20T06:52:37;94544.44;;;16.22;63.21
41234;BME280;26968;42.686;23.352;2022-11-20T06:55:02;94508.31;;;15.87;63.30
41234;BME280;26968;42.686;23.352;2022-11-20T06:57:28;94537.75;;;16.07;63.07
41234;BME280;26968;42.686;23.352;2022-11-20T06:59:53;94472.56;;;15.62;62.76
41234;BME280;26968;42.686;23.352;2022-11-20T07:02:18;94497.31;;;15.79;62.77
41234;BME280;26968;42.686;23.352;2022-11-20T07:04:44;94561.31;;;16.14;62.84
41234;BME280;26968;42.686;23.352;2022-11-20T07:07:09;94571.00;;;16.27;62.51
41234;BME280;26968;42.686;23.352;2022-11-20T07:09:35;94567.72;;;16.21;61.87
41234;BME280;26968;42.686;23.352;2022-11-20T07:12:00;94569.00;;;16.24;62.13
41234;BME280;26968;42.686;23.352;2022-11-20T07:14:26;94580.41;;;16.33;61.60
41234;BME280;26968;42.686;23.352;2022-11-20T07:16:51;94575.22;;;16.37;61.39
41234;BME280;26968;42.686;23.352;2022-11-20T07:19:16;94578.06;;;16.32;61.60
41234;BME280;26968;42.686;23.352;2022-11-20T07:21:43;94570.53;;;16.25;61.30
41234;BME280;26968;42.686;23.352;2022-11-20T07:24:08;94568.25;;;16.15;61.89
41234;BME280;26968;42.686;23.352;2022-11-20T07:26:33;94582.50;;;16.28;61.54
41234;BME280;26968;42.686;23.352;2022-11-20T07:28:59;94578.66;;;16.37;61.18
41234;BME280;26968;42.686;23.352;2022-11-20T07:31:24;94519.09;;;15.99;61.19
41234;BME280;26968;42.686;23.352;2022-11-20T07:33:50;94537.00;;;15.98;61.25
41234;BME280;26968;42.686;23.352;2022-11-20T07:36:15;94590.16;;;16.38;61.37
41234;BME280;26968;42.686;23.352;2022-11-20T07:38:40;94513.47;;;15.92;60.89
41234;BME280;26968;42.686;23.352;2022-11-20T07:41:06;94542.72;;;16.17;60.97
41234;BME280;26968;42.686;23.352;2022-11-20T07:43:31;94562.97;;;16.27;60.87
41234;BME280;26968;42.686;23.352;2022-11-20T07:45:58;94527.84;;;16.08;61.09
41234;BME280;26968;42.686;23.352;2022-11-20T07:48:24;94583.69;;;16.39;60.90
41234;BME280;26968;42.686;23.352;2022-11-20T07:50:53;94569.84;;;16.37;60.75
41234;BME280;26968;42.686;23.352;2022-11-20T07:53:19;94582.59;;;16.40;60.30
41234;BME280;26968;42.686;23.352;2022-11-20T07:55:47;94509.50;;;15.98;60.32
41234;BME280;26968;42.686;23.352;2022-11-20T07:58:12;94589.56;;;16.32;61.29
41234;BME280;26968;42.686;23.352;2022-11-20T08:00:39;94517.09;;;15.87;61.08
41234;BME280;26968;42.686;23.352;2022-11-20T08:03:04;94518.44;;;16.02;60.82
41234;BME280;26968;42.686;23.352;2022-11-20T08:05:30;94533.50;;;16.06;61.10
41234;BME280;26968;42.686;23.352;2022-11-20T08:07:55;94558.59;;;16.23;61.16
41234;BME280;26968;42.686;23.352;2022-11-20T08:10:21;94518.28;;;15.98;61.52
41234;BME280;26968;42.686;23.352;2022-11-20T08:12:50;94558.69;;;16.35;61.12
41234;BME280;26968;42.686;23.352;2022-11-20T08:15:35;94516.03;;;16.09;61.60
41234;BME280;26968;42.686;23.352;2022-11-20T08:18:06;94571.88;;;16.40;61.37
41234;BME280;26968;42.686;23.352;2022-11-20T08:20:32;94537.19;;;16.23;61.38
41234;BME280;26968;42.686;23.352;2022-11-20T08:22:59;94554.25;;;16.39;61.41
41234;BME280;26968;42.686;23.352;2022-11-20T08:25:25;94529.47;;;16.00;61.16
41234;BME280;26968;42.686;23.352;2022-11-20T08:27:51;94532.56;;;16.02;60.70
41234;BME280;26968;42.686;23.352;2022-11-20T08:30:16;94533.31;;;16.11;60.75
41234;BME280;26968;42.686;23.352;2022-11-20T08:32:42;94531.94;;;16.05;60.38
41234;BME280;26968;42.686;23.352;2022-11-20T08:35:07;94580.09;;;16.35;60.34
41234;BME280;26968;42.686;23.352;2022-11-20T08:37:33;94589.38;;;16.37;60.68
41234;BME280;26968;42.686;23.352;2022-11-20T08:39:58;94578.72;;;16.29;60.34
41234;BME280;26968;42.686;23.352;2022-11-20T08:42:24;94596.59;;;16.37;59.79
41234;BME280;26968;42.686;23.352;2022-11-20T08:44:49;94561.84;;;16.07;60.39
41234;BME280;26968;42.686;23.352;2022-11-20T08:47:14;94599.66;;;16.27;60.70
41234;BME280;26968;42.686;23.352;2022-11-20T08:49:40;94584.66;;;16.05;61.02
41234;BME280;26968;42.686;23.352;2022-11-20T08:52:05;94580.78;;;15.94;60.73
41234;BME280;26968;42.686;23.352;2022-11-20T08:54:30;94631.59;;;16.32;61.08
41234;BME280;26968;42.686;23.352;2022-11-20T08:56:56;94608.78;;;16.26;61.09
41234;BME280;26968;42.686;23.352;2022-11-20T08:59:21;94633.22;;;16.53;61.52
41234;BME280;26968;42.686;23.352;2022-11-20T09:01:47;94621.44;;;16.46;62.42
41234;BME280;26968;42.686;23.352;2022-11-20T09:04:12;94628.38;;;16.47;63.51
41234;BME280;26968;42.686;23.352;2022-11-20T09:06:39;94635.66;;;16.38;66.03
41234;BME280;26968;42.686;23.352;2022-11-20T09:09:05;94621.19;;;16.30;64.43
41234;BME280;26968;42.686;23.352;2022-11-20T09:11:31;94577.28;;;16.02;64.20
41234;BME280;26968;42.686;23.352;2022-11-20T09:13:56;94619.75;;;16.33;64.17
41234;BME280;26968;42.686;23.352;2022-11-20T09:16:22;94611.91;;;16.28;65.47
41234;BME280;26968;42.686;23.352;2022-11-20T09:18:49;94601.25;;;16.19;66.52
41234;BME280;26968;42.686;23.352;2022-11-20T09:21:15;94613.53;;;16.20;67.95
41234;BME280;26968;42.686;23.352;2022-11-20T09:23:41;94647.41;;;16.16;70.45
41234;BME280;26968;42.686;23.352;2022-11-20T09:26:10;94549.84;;;15.12;64.10
41234;BME280;26968;42.686;23.352;2022-11-20T09:28:36;94631.34;;;15.43;67.21
41234;BME280;26968;42.686;23.352;2022-11-20T09:31:08;94646.28;;;15.44;68.64
41234;BME280;26968;42.686;23.352;2022-11-20T09:33:35;94590.06;;;14.98;67.38
41234;BME280;26968;42.686;23.352;2022-11-20T09:36:00;94592.72;;;14.98;67.90
41234;BME280;26968;42.686;23.352;2022-11-20T09:38:26;94580.50;;;14.80;71.56
41234;BME280;26968;42.686;23.352;2022-11-20T09:40:57;94621.81;;;15.08;72.80
41234;BME280;26968;42.686;23.352;2022-11-20T09:46:14;94605.47;;;15.10;73.48
41234;BME280;26968;42.686;23.352;2022-11-20T09:51:46;94595.72;;;15.14;73.43
41234;BME280;26968;42.686;23.352;2022-11-20T09:54:20;94527.59;;;14.64;74.92
41234;BME280;26968;42.686;23.352;2022-11-20T09:56:53;94551.75;;;15.02;75.21
41234;BME280;26968;42.686;23.352;2022-11-20T10:01:54;94574.00;;;15.32;76.00
41234;BME280;26968;42.686;23.352;2022-11-20T10:04:20;94583.88;;;15.58;75.27
41234;BME280;26968;42.686;23.352;2022-11-20T10:09:22;94574.44;;;15.43;76.04
41234;BME280;26968;42.686;23.352;2022-11-20T10:15:14;94586.03;;;15.64;76.00
41234;BME280;26968;42.686;23.352;2022-11-20T10:25:20;94508.97;;;15.20;75.37
41234;BME280;26968;42.686;23.352;2022-11-20T10:30:29;94482.91;;;15.17;74.01
41234;BME280;26968;42.686;23.352;2022-11-20T10:33:24;94531.59;;;15.31;73.99
41234;BME280;26968;42.686;23.352;2022-11-20T10:38:38;94569.41;;;15.59;73.68
41234;BME280;26968;42.686;23.352;2022-11-20T10:41:05;94494.72;;;15.07;73.79
41234;BME280;26968;42.686;23.352;2022-11-20T10:43:54;94557.84;;;15.20;76.82
41234;BME280;26968;42.686;23.352;2022-11-20T10:46:22;94582.63;;;15.38;76.59
41234;BME280;26968;42.686;23.352;2022-11-20T10:48:49;94545.25;;;15.21;76.43
41234;BME280;26968;42.686;23.352;2022-11-20T10:51:26;94579.63;;;15.48;76.90
41234;BME280;26968;42.686;23.352;2022-11-20T10:54:08;94562.81;;;15.48;77.10
41234;BME280;26968;42.686;23.352;2022-11-20T10:56:45;94576.19;;;15.56;76.60
41234;BME280;26968;42.686;23.352;2022-11-20T11:02:19;94556.91;;;15.16;77.98
41234;BME280;26968;42.686;23.352;2022-11-20T11:04:47;94591.16;;;15.23;78.19
41234;BME280;26968;42.686;23.352;2022-11-20T11:07:21;94598.84;;;15.33;79.04
41234;BME280;26968;42.686;23.352;2022-11-20T11:09:53;94624.31;;;15.13;80.71
41234;BME280;26968;42.686;23.352;2022-11-20T11:12:25;94553.53;;;14.07;80.16
41234;BME280;26968;42.686;23.352;2022-11-20T11:14:57;94600.81;;;13.84;78.92
41234;BME280;26968;42.686;23.352;2022-11-20T11:17:27;94672.28;;;13.82;82.95
41234;BME280;26968;42.686;23.352;2022-11-20T11:22:33;94655.13;;;13.44;76.73
41234;BME280;26968;42.686;23.352;2022-11-20T11:24:59;94621.53;;;12.98;74.41
41234;BME280;26968;42.686;23.352;2022-11-20T11:27:25;94573.38;;;12.64;75.82
41234;BME280;26968;42.686;23.352;2022-11-20T11:30:02;94627.38;;;13.00;79.72
41234;BME280;26968;42.686;23.352;2022-11-20T11:32:28;94617.84;;;12.86;77.76
41234;BME280;26968;42.686;23.352;2022-11-20T11:35:01;94563.13;;;12.35;78.92
41234;BME280;26968;42.686;23.352;2022-11-20T11:37:32;94604.53;;;12.63;79.73
41234;BME280;26968;42.686;23.352;2022-11-20T11:39:59;94620.16;;;12.79;81.03
41234;BME280;26968;42.686;23.352;2022-11-20T11:42:24;94618.97;;;12.71;80.09
41234;BME280;26968;42.686;23.352;2022-11-20T11:44:50;94594.47;;;12.60;78.62
41234;BME280;26968;42.686;23.352;2022-11-20T11:47:36;94607.63;;;12.79;80.50
41234;BME280;26968;42.686;23.352;2022-11-20T11:50:15;94604.97;;;12.79;80.85
41234;BME280;26968;42.686;23.352;2022-11-20T12:00:22;94609.22;;;12.66;78.52
41234;BME280;26968;42.686;23.352;2022-11-20T12:03:14;94606.69;;;12.61;77.86
41234;BME280;26968;42.686;23.352;2022-11-20T12:05:50;94599.31;;;12.58;78.12
41234;BME280;26968;42.686;23.352;2022-11-20T12:08:23;94611.72;;;12.63;77.97
41234;BME280;26968;42.686;23.352;2022-11-20T12:10:55;94591.75;;;12.74;74.54
41234;BME280;26968;42.686;23.352;2022-11-20T12:13:55;94611.44;;;12.87;75.28
41234;BME280;26968;42.686;23.352;2022-11-20T12:16:23;94594.69;;;12.86;75.62
41234;BME280;26968;42.686;23.352;2022-11-20T12:18:51;94528.59;;;12.44;76.63
41234;BME280;26968;42.686;23.352;2022-11-20T12:21:22;94598.44;;;12.85;76.42
41234;BME280;26968;42.686;23.352;2022-11-20T12:34:56;94632.72;;;12.37;77.29
41234;BME280;26968;42.686;23.352;2022-11-20T12:46:26;94518.16;;;12.47;81.54
41234;BME280;26968;42.686;23.352;2022-11-20T12:49:12;94521.06;;;12.59;82.37
41234;BME280;26968;42.686;23.352;2022-11-20T12:54:25;94544.06;;;12.77;83.04
41234;BME280;26968;42.686;23.352;2022-11-20T13:07:42;94543.47;;;13.03;83.35
41234;BME280;26968;42.686;23.352;2022-11-20T13:13:19;94493.56;;;12.86;84.19
41234;BME280;26968;42.686;23.352;2022-11-20T13:16:02;94500.16;;;12.89;84.28
41234;BME280;26968;42.686;23.352;2022-11-20T13:18:36;94462.25;;;12.38;83.45
41234;BME280;26968;42.686;23.352;2022-11-20T13:21:21;94461.50;;;12.02;83.12
41234;BME280;26968;42.686;23.352;2022-11-20T13:23:47;94520.91;;;12.20;81.97
41234;BME280;26968;42.686;23.352;2022-11-20T13:26:22;94560.81;;;12.56;82.35
41234;BME280;26968;42.686;23.352;2022-11-20T13:29:00;94447.16;;;12.25;82.28
41234;BME280;26968;42.686;23.352;2022-11-20T13:31:32;94494.25;;;12.47;82.26
41234;BME280;26968;42.686;23.352;2022-11-20T13:34:00;94530.91;;;12.36;82.18
41234;BME280;26968;42.686;23.352;2022-11-20T13:36:28;94559.44;;;12.45;82.27
41234;BME280;26968;42.686;23.352;2022-11-20T13:38:55;94561.66;;;12.65;84.09
41234;BME280;26968;42.686;23.352;2022-11-20T13:41:35;94543.78;;;12.79;83.23
41234;BME280;26968;42.686;23.352;2022-11-20T13:46:51;94495.88;;;12.57;83.64
41234;BME280;26968;42.686;23.352;2022-11-20T13:51:50;94502.25;;;12.33;82.06
41234;BME280;26968;42.686;23.352;2022-11-20T13:59:58;94574.50;;;13.07;81.39
41234;BME280;26968;42.686;23.352;2022-11-20T14:02:27;94552.84;;;12.78;81.50
41234;BME280;26968;42.686;23.352;2022-11-20T14:04:57;94562.13;;;12.89;80.91
41234;BME280;26968;42.686;23.352;2022-11-20T14:07:31;94519.34;;;12.77;81.82
41234;BME280;26968;42.686;23.352;2022-11-20T14:09:57;94447.03;;;12.30;81.90
41234;BME280;26968;42.686;23.352;2022-11-20T14:12:28;94577.00;;;13.26;81.25
41234;BME280;26968;42.686;23.352;2022-11-20T14:14:54;94559.16;;;13.27;80.76
41234;BME280;26968;42.686;23.352;2022-11-20T14:19:47;94548.00;;;13.25;81.29
41234;BME280;26968;42.686;23.352;2022-11-20T14:22:24;94529.81;;;13.18;81.21
41234;BME280;26968;42.686;23.352;2022-11-20T14:27:39;94556.09;;;13.42;80.59
41234;BME280;26968;42.686;23.352;2022-11-20T14:30:12;94535.09;;;13.40;80.86
41234;BME280;26968;42.686;23.352;2022-11-20T14:32:39;94509.34;;;13.27;80.66